sensor_id;sensor_type;location;lat;lon;timestamp;P1;durP1;ratioP1;P2;durP2;ratioP2
58657;SDS011;44428;45.630;13.786;2022-12-10T00:01:15;26.73;;;21.00;;
58657;SDS011;44428;45.630;13.786;2022-12-10T00:03:43;28.00;;;20.52;;
58657;SDS011;44428;45.630;13.786;2022-12-10T00:06:11;29.55;;;20.05;;
58657;SDS011;44428;45.630;13.786;2022-12-10T00:08:38;30.85;;;22.05;;
58657;SDS011;44428;45.630;13.786;2022-12-10T00:11:05;28.05;;;21.42;;
58657;SDS011;44428;45.630;13.786;2022-12-10T00:13:32;29.17;;;21.20;;
58657;SDS011;44428;45.630;13.786;2022-12-10T00:16:00;37.75;;;20.98;;
58657;SDS011;44428;45.630;13.786;2022-12-10T00:18:26;27.08;;;21.88;;
58657;SDS011;44428;45.630;13.786;2022-12-10T00:20:52;26.30;;;21.67;;
58657;SDS011;44428;45.630;13.786;2022-12-10T00:23:18;23.23;;;19.42;;
58657;SDS011;44428;45.630;13.786;2022-12-10T00:25:43;26.17;;;19.27;;
58657;SDS011;44428;45.630;13.786;2022-12-10T00:28:09;25.75;;;20.60;;
58657;SDS011;44428;45.630;13.786;2022-12-10T00:30:35;22.63;;;20.08;;
58657;SDS011;44428;45.630;13.786;2022-12-10T00:33:01;24.58;;;19.80;;
58657;SDS011;44428;45.630;13.786;2022-12-10T00:35:26;24.83;;;19.38;;
58657;SDS011;44428;45.630;13.786;2022-12-10T00:37:52;26.67;;;20.85;;
58657;SDS011;44428;45.630;13.786;2022-12-10T00:40:18;29.33;;;22.58;;
58657;SDS011;44428;45.630;13.786;2022-12-10T00:42:44;29.88;;;21.98;;
58657;SDS011;44428;45.630;13.786;2022-12-10T00:45:09;26.23;;;21.60;;
58657;SDS011;44428;45.630;13.786;2022-12-10T00:47:35;25.48;;;20.60;;
58657;SDS011;44428;45.630;13.786;2022-12-10T00:50:01;32.03;;;20.77;;
58657;SDS011;44428;45.630;13.786;2022-12-10T00:52:26;23.50;;;19.10;;
58657;SDS011;44428;45.630;13.786;2022-12-10T00:54:52;26.35;;;20.15;;
58657;SDS011;44428;45.630;13.786;2022-12-10T00:57:18;24.40;;;19.85;;
58657;SDS011;44428;45.630;13.786;2022-12-10T00:59:43;23.17;;;18.38;;
58657;SDS011;44428;45.630;13.786;2022-12-10T01:02:09;23.60;;;18.70;;
58657;SDS011;44428;45.630;13.786;2022-12-10T01:04:35;24.30;;;19.00;;
58657;SDS011;44428;45.630;13.786;2022-12-10T01:07:01;30.05;;;20.95;;
58657;SDS011;44428;45.630;13.786;2022-12-10T01:09:28;25.25;;;20.25;;
58657;SDS011;44428;45.630;13.786;2022-12-10T01:11:57;27.50;;;19.92;;
58657;SDS011;44428;45.630;13.786;2022-12-10T01:14:29;25.30;;;19.10;;
58657;SDS011;44428;45.630;13.786;2022-12-10T01:16:58;25.88;;;19.23;;
58657;SDS011;44428;45.630;13.786;2022-12-10T01:19:29;27.20;;;18.55;;
58657;SDS011;44428;45.630;13.786;2022-12-10T01:21:55;23.73;;;18.52;;
58657;SDS011;44428;45.630;13.786;2022-12-10T01:24:22;24.10;;;18.45;;
58657;SDS011;44428;45.630;13.786;2022-12-10T01:26:48;22.55;;;17.90;;
58657;SDS011;44428;45.630;13.786;2022-12-10T01:29:14;21.58;;;15.98;;
58657;SDS011;44428;45.630;13.786;2022-12-10T01:31:40;25.52;;;18.73;;
58657;SDS011;44428;45.630;13.786;2022-12-10T01:34:07;23.23;;;17.15;;
58657;SDS011;44428;45.630;13.786;2022-12-10T01:36:40;22.77;;;16.97;;
58657;SDS011;44428;45.630;13.786;2022-12-10T01:39:11;23.55;;;16.92;;
58657;SDS011;44428;45.630;13.786;2022-12-10T01:41:40;24.58;;;16.23;;
58657;SDS011;44428;45.630;13.786;2022-12-10T01:46:38;20.08;;;17.15;;
58657;SDS011;44428;45.630;13.786;2022-12-10T01:49:17;19.85;;;16.70;;
58657;SDS011;44428;45.630;13.786;2022-12-10T01:51:52;21.75;;;16.55;;
58657;SDS011;44428;45.630;13.786;2022-12-10T01:54:24;23.98;;;17.58;;
58657;SDS011;44428;45.630;13.786;2022-12-10T01:57:09;22.70;;;17.67;;
58657;SDS011;44428;45.630;13.786;2022-12-10T01:59:38;21.27;;;16.98;;
58657;SDS011;44428;45.630;13.786;2022-12-10T02:04:53;24.15;;;17.50;;
58657;SDS011;44428;45.630;13.786;2022-12-10T02:13:11;24.55;;;19.02;;
58657;SDS011;44428;45.630;13.786;2022-12-10T02:15:43;27.00;;;18.63;;
58657;SDS011;44428;45.630;13.786;2022-12-10T02:18:19;29.27;;;18.65;;
58657;SDS011;44428;45.630;13.786;2022-12-10T02:21:02;25.52;;;18.50;;
58657;SDS011;44428;45.630;13.786;2022-12-10T02:23:39;30.27;;;21.02;;
58657;SDS011;44428;45.630;13.786;2022-12-10T02:31:40;25.85;;;18.80;;
58657;SDS011;44428;45.630;13.786;2022-12-10T02:34:09;25.58;;;18.92;;
58657;SDS011;44428;45.630;13.786;2022-12-10T02:36:37;26.30;;;19.27;;
58657;SDS011;44428;45.630;13.786;2022-12-10T02:39:06;25.38;;;17.48;;
58657;SDS011;44428;45.630;13.786;2022-12-10T02:41:46;25.30;;;17.73;;
58657;SDS011;44428;45.630;13.786;2022-12-10T02:44:17;25.63;;;18.77;;
58657;SDS011;44428;45.630;13.786;2022-12-10T02:46:45;25.88;;;19.48;;
58657;SDS011;44428;45.630;13.786;2022-12-10T02:49:14;29.42;;;19.77;;
58657;SDS011;44428;45.630;13.786;2022-12-10T02:51:41;27.08;;;19.70;;
58657;SDS011;44428;45.630;13.786;2022-12-10T02:54:33;26.17;;;19.20;;
58657;SDS011;44428;45.630;13.786;2022-12-10T02:57:36;29.27;;;19.48;;
58657;SDS011;44428;45.630;13.786;2022-12-10T03:00:13;23.92;;;17.92;;
58657;SDS011;44428;45.630;13.786;2022-12-10T03:08:22;26.50;;;19.65;;
58657;SDS011;44428;45.630;13.786;2022-12-10T03:11:16;33.50;;;19.55;;
58657;SDS011;44428;45.630;13.786;2022-12-10T03:16:52;26.77;;;18.92;;
58657;SDS011;44428;45.630;13.786;2022-12-10T03:19:21;29.30;;;17.67;;
58657;SDS011;44428;45.630;13.786;2022-12-10T03:21:52;29.45;;;18.20;;
58657;SDS011;44428;45.630;13.786;2022-12-10T03:24:23;27.35;;;19.60;;
58657;SDS011;44428;45.630;13.786;2022-12-10T03:26:51;26.48;;;18.00;;
58657;SDS011;44428;45.630;13.786;2022-12-10T03:29:19;32.72;;;21.52;;
58657;SDS011;44428;45.630;13.786;2022-12-10T03:31:49;36.30;;;22.05;;
58657;SDS011;44428;45.630;13.786;2022-12-10T03:34:16;33.92;;;21.55;;
58657;SDS011;44428;45.630;13.786;2022-12-10T03:36:42;32.65;;;21.60;;
58657;SDS011;44428;45.630;13.786;2022-12-10T03:39:09;31.23;;;23.27;;
58657;SDS011;44428;45.630;13.786;2022-12-10T03:41:35;29.45;;;21.60;;
58657;SDS011;44428;45.630;13.786;2022-12-10T03:44:01;35.28;;;22.52;;
58657;SDS011;44428;45.630;13.786;2022-12-10T03:46:27;32.90;;;23.48;;
58657;SDS011;44428;45.630;13.786;2022-12-10T03:48:55;33.90;;;23.88;;
58657;SDS011;44428;45.630;13.786;2022-12-10T03:51:21;28.38;;;21.27;;
58657;SDS011;44428;45.630;13.786;2022-12-10T03:53:47;31.92;;;22.23;;
58657;SDS011;44428;45.630;13.786;2022-12-10T03:56:16;28.63;;;20.60;;
58657;SDS011;44428;45.630;13.786;2022-12-10T03:58:43;34.25;;;22.55;;
58657;SDS011;44428;45.630;13.786;2022-12-10T04:01:09;33.03;;;23.35;;
58657;SDS011;44428;45.630;13.786;2022-12-10T04:03:35;34.22;;;23.67;;
58657;SDS011;44428;45.630;13.786;2022-12-10T04:06:10;36.60;;;23.67;;
58657;SDS011;44428;45.630;13.786;2022-12-10T04:08:39;34.72;;;24.13;;
58657;SDS011;44428;45.630;13.786;2022-12-10T04:11:05;35.58;;;25.23;;
58657;SDS011;44428;45.630;13.786;2022-12-10T04:13:33;42.45;;;26.75;;
58657;SDS011;44428;45.630;13.786;2022-12-10T04:16:19;39.28;;;26.23;;
58657;SDS011;44428;45.630;13.786;2022-12-10T04:18:54;41.55;;;26.45;;
58657;SDS011;44428;45.630;13.786;2022-12-10T04:24:09;46.17;;;26.83;;
58657;SDS011;44428;45.630;13.786;2022-12-10T04:26:55;57.03;;;27.67;;
58657;SDS011;44428;45.630;13.786;2022-12-10T04:29:23;56.05;;;28.10;;
58657;SDS011;44428;45.630;13.786;2022-12-10T04:31:51;53.78;;;29.30;;
58657;SDS011;44428;45.630;13.786;2022-12-10T04:34:17;59.30;;;31.10;;
58657;SDS011;44428;45.630;13.786;2022-12-10T04:36:43;59.05;;;31.27;;
58657;SDS011;44428;45.630;13.786;2022-12-10T04:39:09;60.50;;;28.90;;
58657;SDS011;44428;45.630;13.786;2022-12-10T04:41:40;66.88;;;30.35;;
58657;SDS011;44428;45.630;13.786;2022-12-10T04:44:07;66.22;;;29.83;;
58657;SDS011;44428;45.630;13.786;2022-12-10T04:46:33;58.53;;;27.70;;
58657;SDS011;44428;45.630;13.786;2022-12-10T04:48:59;61.33;;;29.52;;
58657;SDS011;44428;45.630;13.786;2022-12-10T04:51:25;58.17;;;27.90;;
58657;SDS011;44428;45.630;13.786;2022-12-10T04:53:51;59.58;;;28.40;;
58657;SDS011;44428;45.630;13.786;2022-12-10T04:56:17;62.15;;;29.63;;
58657;SDS011;44428;45.630;13.786;2022-12-10T04:58:43;62.10;;;29.38;;
58657;SDS011;44428;45.630;13.786;2022-12-10T05:01:09;58.50;;;26.92;;
58657;SDS011;44428;45.630;13.786;2022-12-10T05:03:36;52.88;;;26.92;;
58657;SDS011;44428;45.630;13.786;2022-12-10T05:06:05;60.35;;;29.33;;
58657;SDS011;44428;45.630;13.786;2022-12-10T05:08:37;60.65;;;29.00;;
58657;SDS011;44428;45.630;13.786;2022-12-10T05:11:06;59.83;;;29.17;;
58657;SDS011;44428;45.630;13.786;2022-12-10T05:13:34;61.78;;;30.60;;
58657;SDS011;44428;45.630;13.786;2022-12-10T05:16:01;61.53;;;28.38;;
58657;SDS011;44428;45.630;13.786;2022-12-10T05:18:30;62.88;;;29.02;;
58657;SDS011;44428;45.630;13.786;2022-12-10T05:21:00;61.00;;;27.40;;
58657;SDS011;44428;45.630;13.786;2022-12-10T05:23:35;56.80;;;28.65;;
58657;SDS011;44428;45.630;13.786;2022-12-10T05:26:09;60.05;;;28.85;;
58657;SDS011;44428;45.630;13.786;2022-12-10T05:28:42;61.03;;;30.90;;
58657;SDS011;44428;45.630;13.786;2022-12-10T05:31:18;55.78;;;28.30;;
58657;SDS011;44428;45.630;13.786;2022-12-10T05:33:48;63.22;;;30.45;;
58657;SDS011;44428;45.630;13.786;2022-12-10T05:36:16;64.00;;;30.15;;
58657;SDS011;44428;45.630;13.786;2022-12-10T05:38:43;60.95;;;30.13;;
58657;SDS011;44428;45.630;13.786;2022-12-10T05:41:29;54.85;;;27.75;;
58657;SDS011;44428;45.630;13.786;2022-12-10T05:43:57;58.42;;;28.45;;
58657;SDS011;44428;45.630;13.786;2022-12-10T05:46:24;63.10;;;29.92;;
58657;SDS011;44428;45.630;13.786;2022-12-10T05:48:52;68.80;;;30.27;;
58657;SDS011;44428;45.630;13.786;2022-12-10T05:51:20;63.47;;;29.75;;
58657;SDS011;44428;45.630;13.786;2022-12-10T05:53:47;61.30;;;30.35;;
58657;SDS011;44428;45.630;13.786;2022-12-10T05:56:14;64.35;;;28.70;;
58657;SDS011;44428;45.630;13.786;2022-12-10T05:58:44;62.03;;;28.95;;
58657;SDS011;44428;45.630;13.786;2022-12-10T06:01:14;63.95;;;29.83;;
58657;SDS011;44428;45.630;13.786;2022-12-10T06:03:42;60.00;;;27.58;;
58657;SDS011;44428;45.630;13.786;2022-12-10T06:06:09;60.00;;;27.52;;
58657;SDS011;44428;45.630;13.786;2022-12-10T06:08:37;55.90;;;26.23;;
58657;SDS011;44428;45.630;13.786;2022-12-10T06:11:07;55.00;;;27.35;;
58657;SDS011;44428;45.630;13.786;2022-12-10T06:13:35;54.83;;;26.55;;
58657;SDS011;44428;45.630;13.786;2022-12-10T06:16:06;62.30;;;28.38;;
58657;SDS011;44428;45.630;13.786;2022-12-10T06:18:33;57.50;;;27.77;;
58657;SDS011;44428;45.630;13.786;2022-12-10T06:21:02;69.75;;;27.98;;
58657;SDS011;44428;45.630;13.786;2022-12-10T06:23:29;69.15;;;32.95;;
58657;SDS011;44428;45.630;13.786;2022-12-10T06:25:55;68.80;;;31.27;;
58657;SDS011;44428;45.630;13.786;2022-12-10T06:28:21;65.50;;;32.58;;
58657;SDS011;44428;45.630;13.786;2022-12-10T06:30:46;65.32;;;30.45;;
58657;SDS011;44428;45.630;13.786;2022-12-10T06:33:12;64.00;;;30.00;;
58657;SDS011;44428;45.630;13.786;2022-12-10T06:35:38;65.22;;;32.28;;
58657;SDS011;44428;45.630;13.786;2022-12-10T06:38:03;60.30;;;30.83;;
58657;SDS011;44428;45.630;13.786;2022-12-10T06:40:29;55.42;;;29.75;;
58657;SDS011;44428;45.630;13.786;2022-12-10T06:42:55;60.45;;;29.85;;
58657;SDS011;44428;45.630;13.786;2022-12-10T06:45:21;63.45;;;27.83;;
58657;SDS011;44428;45.630;13.786;2022-12-10T06:47:46;56.35;;;28.20;;
58657;SDS011;44428;45.630;13.786;2022-12-10T06:50:12;61.95;;;30.55;;
58657;SDS011;44428;45.630;13.786;2022-12-10T06:52:38;62.78;;;30.52;;
58657;SDS011;44428;45.630;13.786;2022-12-10T06:55:04;61.78;;;30.23;;
58657;SDS011;44428;45.630;13.786;2022-12-10T06:57:30;60.17;;;28.85;;
58657;SDS011;44428;45.630;13.786;2022-12-10T06:59:56;63.35;;;28.67;;
58657;SDS011;44428;45.630;13.786;2022-12-10T07:02:21;62.17;;;29.38;;
58657;SDS011;44428;45.630;13.786;2022-12-10T07:04:47;69.55;;;30.90;;
58657;SDS011;44428;45.630;13.786;2022-12-10T07:07:13;62.78;;;28.02;;
58657;SDS011;44428;45.630;13.786;2022-12-10T07:09:39;58.38;;;27.35;;
58657;SDS011;44428;45.630;13.786;2022-12-10T07:12:04;57.75;;;27.70;;
58657;SDS011;44428;45.630;13.786;2022-12-10T07:14:30;60.08;;;27.15;;
58657;SDS011;44428;45.630;13.786;2022-12-10T07:16:56;62.53;;;29.02;;
58657;SDS011;44428;45.630;13.786;2022-12-10T07:19:22;63.85;;;27.52;;
58657;SDS011;44428;45.630;13.786;2022-12-10T07:21:47;61.67;;;27.35;;
58657;SDS011;44428;45.630;13.786;2022-12-10T07:24:14;63.70;;;28.35;;
58657;SDS011;44428;45.630;13.786;2022-12-10T07:26:42;53.17;;;26.35;;
58657;SDS011;44428;45.630;13.786;2022-12-10T07:29:11;58.70;;;27.08;;
58657;SDS011;44428;45.630;13.786;2022-12-10T07:31:39;59.88;;;26.80;;
58657;SDS011;44428;45.630;13.786;2022-12-10T07:34:04;55.47;;;25.73;;
58657;SDS011;44428;45.630;13.786;2022-12-10T07:36:30;59.17;;;27.60;;
58657;SDS011;44428;45.630;13.786;2022-12-10T07:38:56;53.95;;;25.83;;
58657;SDS011;44428;45.630;13.786;2022-12-10T07:41:22;43.20;;;22.17;;
58657;SDS011;44428;45.630;13.786;2022-12-10T07:43:49;42.22;;;21.80;;
58657;SDS011;44428;45.630;13.786;2022-12-10T07:46:16;42.85;;;21.08;;
58657;SDS011;44428;45.630;13.786;2022-12-10T07:48:44;45.70;;;22.05;;
58657;SDS011;44428;45.630;13.786;2022-12-10T07:51:11;42.30;;;21.42;;
58657;SDS011;44428;45.630;13.786;2022-12-10T07:53:38;39.80;;;20.45;;
58657;SDS011;44428;45.630;13.786;2022-12-10T07:56:04;47.33;;;23.52;;
58657;SDS011;44428;45.630;13.786;2022-12-10T07:58:31;43.00;;;22.90;;
58657;SDS011;44428;45.630;13.786;2022-12-10T08:00:58;45.28;;;24.65;;
58657;SDS011;44428;45.630;13.786;2022-12-10T08:03:23;43.22;;;24.55;;
58657;SDS011;44428;45.630;13.786;2022-12-10T08:06:00;48.10;;;25.40;;
58657;SDS011;44428;45.630;13.786;2022-12-10T08:08:26;46.83;;;22.88;;
58657;SDS011;44428;45.630;13.786;2022-12-10T08:10:52;45.47;;;23.88;;
58657;SDS011;44428;45.630;13.786;2022-12-10T08:13:17;41.22;;;21.92;;
58657;SDS011;44428;45.630;13.786;2022-12-10T08:15:43;40.28;;;22.73;;
58657;SDS011;44428;45.630;13.786;2022-12-10T08:18:09;44.85;;;23.25;;
58657;SDS011;44428;45.630;13.786;2022-12-10T08:20:35;50.15;;;24.35;;
58657;SDS011;44428;45.630;13.786;2022-12-10T08:23:00;43.95;;;23.83;;
58657;SDS011;44428;45.630;13.786;2022-12-10T08:25:26;40.95;;;23.05;;
58657;SDS011;44428;45.630;13.786;2022-12-10T08:27:52;39.03;;;21.92;;
58657;SDS011;44428;45.630;13.786;2022-12-10T08:30:18;41.97;;;23.42;;
58657;SDS011;44428;45.630;13.786;2022-12-10T08:32:43;48.13;;;23.05;;
58657;SDS011;44428;45.630;13.786;2022-12-10T08:35:09;47.13;;;23.13;;
58657;SDS011;44428;45.630;13.786;2022-12-10T08:37:35;46.03;;;23.90;;
58657;SDS011;44428;45.630;13.786;2022-12-10T08:40:01;50.55;;;27.15;;
58657;SDS011;44428;45.630;13.786;2022-12-10T08:42:26;50.60;;;28.13;;
58657;SDS011;44428;45.630;13.786;2022-12-10T08:44:52;47.55;;;26.15;;
58657;SDS011;44428;45.630;13.786;2022-12-10T08:47:18;47.25;;;24.63;;
58657;SDS011;44428;45.630;13.786;2022-12-10T08:49:44;46.45;;;26.35;;
58657;SDS011;44428;45.630;13.786;2022-12-10T08:52:09;46.08;;;26.23;;
58657;SDS011;44428;45.630;13.786;2022-12-10T08:54:35;50.55;;;28.60;;
58657;SDS011;44428;45.630;13.786;2022-12-10T08:57:01;45.85;;;27.02;;
58657;SDS011;44428;45.630;13.786;2022-12-10T08:59:27;47.03;;;25.95;;
58657;SDS011;44428;45.630;13.786;2022-12-10T09:01:52;50.40;;;28.33;;
58657;SDS011;44428;45.630;13.786;2022-12-10T09:04:18;51.80;;;28.10;;
58657;SDS011;44428;45.630;13.786;2022-12-10T09:06:44;51.90;;;28.10;;
58657;SDS011;44428;45.630;13.786;2022-12-10T09:09:09;51.08;;;28.88;;
58657;SDS011;44428;45.630;13.786;2022-12-10T09:11:35;54.40;;;29.35;;
58657;SDS011;44428;45.630;13.786;2022-12-10T09:14:01;48.28;;;28.13;;
58657;SDS011;44428;45.630;13.786;2022-12-10T09:16:28;47.70;;;26.58;;
58657;SDS011;44428;45.630;13.786;2022-12-10T09:18:55;44.42;;;28.00;;
58657;SDS011;44428;45.630;13.786;2022-12-10T09:21:21;46.05;;;27.60;;
58657;SDS011;44428;45.630;13.786;2022-12-10T09:23:47;48.22;;;28.10;;
58657;SDS011;44428;45.630;13.786;2022-12-10T09:26:14;48.42;;;28.27;;
58657;SDS011;44428;45.630;13.786;2022-12-10T09:28:41;45.75;;;25.75;;
58657;SDS011;44428;45.630;13.786;2022-12-10T09:31:07;50.22;;;28.00;;
58657;SDS011;44428;45.630;13.786;2022-12-10T09:33:34;51.20;;;28.30;;
58657;SDS011;44428;45.630;13.786;2022-12-10T09:36:04;50.60;;;30.05;;
58657;SDS011;44428;45.630;13.786;2022-12-10T09:38:35;46.65;;;30.38;;
58657;SDS011;44428;45.630;13.786;2022-12-10T09:44:12;44.97;;;27.08;;
58657;SDS011;44428;45.630;13.786;2022-12-10T09:46:58;44.80;;;27.20;;
58657;SDS011;44428;45.630;13.786;2022-12-10T09:51:58;48.05;;;27.23;;
58657;SDS011;44428;45.630;13.786;2022-12-10T09:54:34;46.85;;;27.52;;
58657;SDS011;44428;45.630;13.786;2022-12-10T09:57:05;45.63;;;27.85;;
58657;SDS011;44428;45.630;13.786;2022-12-10T09:59:37;40.05;;;24.45;;
58657;SDS011;44428;45.630;13.786;2022-12-10T10:04:58;40.05;;;25.17;;
58657;SDS011;44428;45.630;13.786;2022-12-10T10:07:37;39.28;;;24.95;;
58657;SDS011;44428;45.630;13.786;2022-12-10T10:10:12;39.45;;;24.17;;
58657;SDS011;44428;45.630;13.786;2022-12-10T10:12:43;38.78;;;25.17;;
58657;SDS011;44428;45.630;13.786;2022-12-10T10:15:12;38.55;;;24.35;;
58657;SDS011;44428;45.630;13.786;2022-12-10T10:17:41;39.75;;;24.42;;
58657;SDS011;44428;45.630;13.786;2022-12-10T10:20:11;43.15;;;27.08;;
58657;SDS011;44428;45.630;13.786;2022-12-10T10:22:38;35.22;;;24.83;;
58657;SDS011;44428;45.630;13.786;2022-12-10T10:25:05;32.30;;;23.80;;
58657;SDS011;44428;45.630;13.786;2022-12-10T10:27:38;36.28;;;23.65;;
58657;SDS011;44428;45.630;13.786;2022-12-10T10:30:04;36.08;;;24.40;;
58657;SDS011;44428;45.630;13.786;2022-12-10T10:35:01;37.58;;;24.90;;
58657;SDS011;44428;45.630;13.786;2022-12-10T10:37:29;38.60;;;25.65;;
58657;SDS011;44428;45.630;13.786;2022-12-10T10:40:05;38.22;;;26.27;;
58657;SDS011;44428;45.630;13.786;2022-12-10T10:42:42;35.78;;;23.45;;
58657;SDS011;44428;45.630;13.786;2022-12-10T10:48:16;36.70;;;24.08;;
58657;SDS011;44428;45.630;13.786;2022-12-10T10:50:45;37.58;;;25.25;;
58657;SDS011;44428;45.630;13.786;2022-12-10T10:53:22;38.58;;;26.38;;
58657;SDS011;44428;45.630;13.786;2022-12-10T10:55:53;36.47;;;25.50;;
58657;SDS011;44428;45.630;13.786;2022-12-10T10:58:22;38.30;;;24.58;;
58657;SDS011;44428;45.630;13.786;2022-12-10T11:01:00;38.38;;;24.88;;
58657;SDS011;44428;45.630;13.786;2022-12-10T11:03:29;39.20;;;27.40;;
58657;SDS011;44428;45.630;13.786;2022-12-10T11:05:58;42.35;;;27.60;;
58657;SDS011;44428;45.630;13.786;2022-12-10T11:08:25;41.63;;;26.90;;
58657;SDS011;44428;45.630;13.786;2022-12-10T11:11:01;40.15;;;28.63;;
58657;SDS011;44428;45.630;13.786;2022-12-10T11:13:29;43.40;;;28.45;;
58657;SDS011;44428;45.630;13.786;2022-12-10T11:16:09;43.22;;;28.20;;
58657;SDS011;44428;45.630;13.786;2022-12-10T11:18:59;42.35;;;27.20;;
58657;SDS011;44428;45.630;13.786;2022-12-10T11:21:28;42.78;;;27.60;;
58657;SDS011;44428;45.630;13.786;2022-12-10T11:23:56;42.38;;;26.70;;
58657;SDS011;44428;45.630;13.786;2022-12-10T11:36:38;44.60;;;26.70;;
58657;SDS011;44428;45.630;13.786;2022-12-10T11:39:24;31.05;;;17.75;;
58657;SDS011;44428;45.630;13.786;2022-12-10T11:42:14;20.38;;;13.13;;
58657;SDS011;44428;45.630;13.786;2022-12-10T11:45:02;19.02;;;11.82;;
58657;SDS011;44428;45.630;13.786;2022-12-10T11:47:52;13.93;;;9.30;;
58657;SDS011;44428;45.630;13.786;2022-12-10T11:50:33;7.32;;;4.03;;
58657;SDS011;44428;45.630;13.786;2022-12-10T12:04:25;2.22;;;0.95;;
58657;SDS011;44428;45.630;13.786;2022-12-10T12:11:55;1.52;;;0.95;;
58657;SDS011;44428;45.630;13.786;2022-12-10T12:14:27;2.58;;;1.00;;
58657;SDS011;44428;45.630;13.786;2022-12-10T12:22:15;1.67;;;1.00;;
58657;SDS011;44428;45.630;13.786;2022-12-10T12:24:53;2.13;;;1.10;;
58657;SDS011;44428;45.630;13.786;2022-12-10T12:27:30;2.50;;;1.20;;
58657;SDS011;44428;45.630;13.786;2022-12-10T12:30:05;2.60;;;1.02;;
58657;SDS011;44428;45.630;13.786;2022-12-10T12:36:33;3.65;;;1.42;;
58657;SDS011;44428;45.630;13.786;2022-12-10T12:38:36;4.00;;;1.70;;
58657;SDS011;44428;45.630;13.786;2022-12-10T12:46:09;2.28;;;1.27;;
58657;SDS011;44428;45.630;13.786;2022-12-10T12:48:41;3.55;;;1.30;;
58657;SDS011;44428;45.630;13.786;2022-12-10T12:53:48;2.70;;;1.00;;
58657;SDS011;44428;45.630;13.786;2022-12-10T13:01:57;2.53;;;1.33;;
58657;SDS011;44428;45.630;13.786;2022-12-10T13:04:46;3.28;;;1.20;;
58657;SDS011;44428;45.630;13.786;2022-12-10T13:15:00;1.92;;;0.95;;
58657;SDS011;44428;45.630;13.786;2022-12-10T13:17:36;2.72;;;1.35;;
58657;SDS011;44428;45.630;13.786;2022-12-10T13:28:22;2.65;;;0.80;;
58657;SDS011;44428;45.630;13.786;2022-12-10T13:36:26;1.95;;;1.00;;
58657;SDS011;44428;45.630;13.786;2022-12-10T13:41:34;3.10;;;1.30;;
58657;SDS011;44428;45.630;13.786;2022-12-10T13:44:36;3.33;;;1.33;;
58657;SDS011;44428;45.630;13.786;2022-12-10T13:50:06;1.92;;;0.88;;
58657;SDS011;44428;45.630;13.786;2022-12-10T14:00:53;1.90;;;0.82;;
58657;SDS011;44428;45.630;13.786;2022-12-10T14:06:17;3.38;;;1.02;;
58657;SDS011;44428;45.630;13.786;2022-12-10T14:08:55;2.50;;;1.17;;
58657;SDS011;44428;45.630;13.786;2022-12-10T14:11:37;2.63;;;1.23;;
58657;SDS011;44428;45.630;13.786;2022-12-10T14:14:11;2.40;;;1.10;;
58657;SDS011;44428;45.630;13.786;2022-12-10T14:16:50;1.08;;;0.80;;
58657;SDS011;44428;45.630;13.786;2022-12-10T14:19:16;0.98;;;0.80;;
58657;SDS011;44428;45.630;13.786;2022-12-10T14:21:43;1.38;;;0.77;;
58657;SDS011;44428;45.630;13.786;2022-12-10T14:24:28;1.10;;;0.63;;
58657;SDS011;44428;45.630;13.786;2022-12-10T14:29:46;1.63;;;0.80;;
58657;SDS011;44428;45.630;13.786;2022-12-10T14:32:14;4.10;;;1.30;;
58657;SDS011;44428;45.630;13.786;2022-12-10T14:34:43;2.05;;;0.93;;
58657;SDS011;44428;45.630;13.786;2022-12-10T14:37:15;1.80;;;0.93;;
58657;SDS011;44428;45.630;13.786;2022-12-10T14:39:43;1.63;;;0.80;;
58657;SDS011;44428;45.630;13.786;2022-12-10T14:42:09;1.80;;;0.70;;
58657;SDS011;44428;45.630;13.786;2022-12-10T14:44:39;1.23;;;0.68;;
58657;SDS011;44428;45.630;13.786;2022-12-10T14:47:10;1.10;;;0.70;;
58657;SDS011;44428;45.630;13.786;2022-12-10T14:49:44;1.13;;;0.70;;
58657;SDS011;44428;45.630;13.786;2022-12-10T14:52:12;2.90;;;0.93;;
58657;SDS011;44428;45.630;13.786;2022-12-10T14:54:43;1.73;;;0.82;;
58657;SDS011;44428;45.630;13.786;2022-12-10T14:57:21;2.17;;;1.23;;
58657;SDS011;44428;45.630;13.786;2022-12-10T15:00:07;2.72;;;1.00;;
58657;SDS011;44428;45.630;13.786;2022-12-10T15:02:42;1.85;;;1.00;;
58657;SDS011;44428;45.630;13.786;2022-12-10T15:05:17;2.22;;;1.02;;
58657;SDS011;44428;45.630;13.786;2022-12-10T15:07:57;3.35;;;1.60;;
58657;SDS011;44428;45.630;13.786;2022-12-10T15:10:31;2.25;;;1.00;;
58657;SDS011;44428;45.630;13.786;2022-12-10T15:12:59;1.63;;;0.85;;
58657;SDS011;44428;45.630;13.786;2022-12-10T15:15:30;2.42;;;1.42;;
58657;SDS011;44428;45.630;13.786;2022-12-10T15:25:52;2.00;;;0.75;;
58657;SDS011;44428;45.630;13.786;2022-12-10T15:28:33;1.40;;;0.80;;
58657;SDS011;44428;45.630;13.786;2022-12-10T15:33:52;1.55;;;1.00;;
58657;SDS011;44428;45.630;13.786;2022-12-10T15:36:28;0.90;;;0.73;;
58657;SDS011;44428;45.630;13.786;2022-12-10T15:49:51;1.55;;;0.75;;
58657;SDS011;44428;45.630;13.786;2022-12-10T15:52:20;0.82;;;0.50;;
58657;SDS011;44428;45.630;13.786;2022-12-10T15:54:48;2.40;;;0.80;;
58657;SDS011;44428;45.630;13.786;2022-12-10T15:57:17;1.33;;;0.85;;
58657;SDS011;44428;45.630;13.786;2022-12-10T15:59:49;1.70;;;0.73;;
58657;SDS011;44428;45.630;13.786;2022-12-10T16:05:02;1.63;;;0.70;;
58657;SDS011;44428;45.630;13.786;2022-12-10T16:07:38;1.30;;;0.75;;
58657;SDS011;44428;45.630;13.786;2022-12-10T16:10:04;0.85;;;0.50;;
58657;SDS011;44428;45.630;13.786;2022-12-10T16:12:31;1.50;;;0.68;;
58657;SDS011;44428;45.630;13.786;2022-12-10T16:15:00;1.02;;;0.60;;
58657;SDS011;44428;45.630;13.786;2022-12-10T16:17:26;1.40;;;0.70;;
58657;SDS011;44428;45.630;13.786;2022-12-10T16:19:53;1.95;;;0.60;;
58657;SDS011;44428;45.630;13.786;2022-12-10T16:22:23;2.05;;;0.70;;
58657;SDS011;44428;45.630;13.786;2022-12-10T16:24:48;0.88;;;0.60;;
58657;SDS011;44428;45.630;13.786;2022-12-10T16:27:15;1.23;;;0.60;;
58657;SDS011;44428;45.630;13.786;2022-12-10T16:29:42;2.35;;;0.50;;
58657;SDS011;44428;45.630;13.786;2022-12-10T16:32:11;1.48;;;0.55;;
58657;SDS011;44428;45.630;13.786;2022-12-10T16:34:39;1.60;;;0.40;;
58657;SDS011;44428;45.630;13.786;2022-12-10T16:37:05;1.10;;;0.60;;
58657;SDS011;44428;45.630;13.786;2022-12-10T16:39:31;0.30;;;0.30;;
58657;SDS011;44428;45.630;13.786;2022-12-10T16:41:57;0.70;;;0.47;;
58657;SDS011;44428;45.630;13.786;2022-12-10T16:44:23;0.70;;;0.47;;
58657;SDS011;44428;45.630;13.786;2022-12-10T16:46:49;0.95;;;0.50;;
58657;SDS011;44428;45.630;13.786;2022-12-10T16:49:15;1.83;;;0.80;;
58657;SDS011;44428;45.630;13.786;2022-12-10T16:51:40;0.38;;;0.30;;
58657;SDS011;44428;45.630;13.786;2022-12-10T16:54:09;0.40;;;0.25;;
58657;SDS011;44428;45.630;13.786;2022-12-10T16:56:36;1.08;;;0.50;;
58657;SDS011;44428;45.630;13.786;2022-12-10T16:59:02;1.00;;;0.50;;
58657;SDS011;44428;45.630;13.786;2022-12-10T17:01:29;0.88;;;0.60;;
58657;SDS011;44428;45.630;13.786;2022-12-10T17:03:56;0.90;;;0.30;;
58657;SDS011;44428;45.630;13.786;2022-12-10T17:06:23;1.05;;;0.50;;